Meteo Giornale » Osservazioni meteo Italia » Grazzanise

ore: 08:55 - Osservazioni Meteo Grazzanise
Lat. 41° 3' N Lon. 14° 4' E Alt. 9 metri s.l.m.

foschia Europe/Rome

19 °C

Foschia

Temp. 24 Ore

14 °C

24 °C

Nord

0 Km/h

Dew point 17 °C

Umidità 88 %

Visibilità  4 Km

Il sole sorge alle ore 06:10

Il sole tramonta alle ore 19:53

Data e Ora Cielo e Fenomeni T °C DP °C Um. % Pres. hPa Vis. km Vento km/h
Oggi h: 08:55 foschia Foschia 19 17 88 1018 4 N 0
Oggi h: 07:55 foschia Foschia 17 15 88 1018 3 N 0
Oggi h: 06:55 foschia Foschia 16 13 82 1018 4 N 0
Oggi h: 04:55 foschia Foschia 14 12 87 1018 2 N 0
Oggi h: 03:55 foschia Foschia 14 12 87 1018 2 N 0
Oggi h: 02:55 foschia Foschia 14 12 87 1018 2 N 0
Oggi h: 01:55 foschia Foschia 15 13 87 1018 3 N 0
Oggi h: 00:55 foschia Foschia 15 13 87 1018 3 N 0
Ieri h: 23:55 foschia Foschia 15 13 87 1018 3 N 0
Ieri h: 22:55 foschia Foschia 16 14 87 1018 4 N 0
Ieri h: 21:55 foschia Foschia 16 15 93 1018 5 N 0
Ieri h: 20:55 foschia Foschia 16 15 93 1018 3 N 0
Ieri h: 20:13 foschia Foschia 17 16 93 1018 3 N 0
Ieri h: 19:55 foschia Foschia 17 16 93 1017 5 N 0
Ieri h: 18:55 poco_nuvoloso Poco Nuvoloso 21 20 94 1017 8 N 0
Ieri h: 17:55 poco_nuvoloso Poco Nuvoloso 21 20 94 1017 10 N 0
Ieri h: 16:55 poco_nuvoloso Poco Nuvoloso 23 21 88 1017 10 N 0
Ieri h: 15:55 poco_nuvoloso Poco Nuvoloso 23 21 88 1017 8 N 0
Ieri h: 14:55 poco_nuvoloso Poco Nuvoloso 23 20 83 1018 8 N 0
Ieri h: 13:55 poco_nuvoloso Poco Nuvoloso 23 19 78 1018 8 N 0
Ieri h: 12:55 poco_nuvoloso Poco Nuvoloso 23 18 73 1018 8 N 0
Ieri h: 11:55 poco_nuvoloso Poco Nuvoloso 24 19 73 1018 8 N 0
Ieri h: 10:55 foschia Foschia 22 20 88 1018 5 N 0
Ieri h: 09:55 foschia Foschia 20 17 82 1018 3 N 0